createdAt,value
2019-06-01T00:00:25.784Z,15.30
2019-06-01T00:02:59.334Z,15.30
2019-06-01T00:05:30.644Z,15.30
2019-06-01T00:08:02.820Z,15.30
2019-06-01T00:10:34.086Z,15.30
2019-06-01T00:13:05.371Z,15.30
2019-06-01T00:15:36.650Z,15.10
2019-06-01T00:18:08.030Z,15.10
2019-06-01T00:20:40.084Z,15.00
2019-06-01T00:23:11.649Z,15.10
2019-06-01T00:25:44.715Z,15.10
2019-06-01T00:28:16.217Z,15.00
2019-06-01T00:30:47.953Z,14.80
2019-06-01T00:33:19.307Z,14.70
2019-06-01T00:35:51.677Z,14.80
2019-06-01T00:38:23.005Z,14.70
2019-06-01T00:40:54.188Z,14.80
2019-06-01T00:43:26.549Z,14.80
2019-06-01T00:45:57.851Z,14.80
2019-06-01T00:48:29.111Z,14.70
2019-06-01T00:51:00.598Z,14.80
2019-06-01T00:53:32.244Z,14.90
2019-06-01T00:56:03.676Z,14.80
2019-06-01T00:58:35.215Z,14.70
2019-06-01T01:01:06.653Z,14.70
2019-06-01T01:03:38.470Z,14.80
2019-06-01T01:06:10.177Z,14.80
2019-06-01T01:08:41.855Z,14.80
2019-06-01T01:11:13.723Z,14.80
2019-06-01T01:13:47.171Z,14.80
2019-06-01T01:16:18.529Z,14.70
2019-06-01T01:18:49.901Z,14.60
2019-06-01T01:21:21.118Z,14.60
2019-06-01T01:23:53.162Z,14.60
2019-06-01T01:26:25.015Z,14.60
2019-06-01T01:28:57.001Z,14.50
2019-06-01T01:31:28.322Z,14.50
2019-06-01T01:33:59.604Z,14.50
2019-06-01T01:36:31.183Z,14.40
2019-06-01T01:39:02.382Z,14.40
2019-06-01T01:41:34.782Z,14.30
2019-06-01T01:44:06.187Z,14.40
2019-06-01T01:46:37.618Z,14.40
2019-06-01T01:49:08.759Z,14.20
2019-06-01T01:51:39.787Z,14.20
2019-06-01T01:54:11.502Z,14.10
2019-06-01T01:56:43.321Z,13.90
2019-06-01T01:59:14.865Z,13.80
2019-06-01T02:01:46.055Z,13.90
2019-06-01T02:04:17.738Z,14.00
2019-06-01T02:06:48.986Z,13.90
2019-06-01T02:09:20.140Z,13.90
2019-06-01T02:11:51.788Z,13.90
2019-06-01T02:14:23.493Z,13.90
2019-06-01T02:16:56.123Z,13.80
2019-06-01T02:19:27.883Z,13.90
2019-06-01T02:21:59.131Z,14.00
2019-06-01T02:24:30.421Z,14.00
2019-06-01T02:27:01.618Z,14.00
2019-06-01T02:29:33.207Z,13.90
2019-06-01T02:32:06.467Z,13.80
2019-06-01T02:34:37.898Z,13.80
2019-06-01T02:37:10.391Z,13.80
2019-06-01T02:39:41.819Z,13.80
2019-06-01T02:42:14.810Z,13.80
2019-06-01T02:44:46.037Z,13.90
2019-06-01T02:47:17.324Z,13.80
2019-06-01T02:49:48.460Z,13.80
2019-06-01T02:52:19.711Z,13.70
2019-06-01T02:54:51.363Z,13.70
2019-06-01T02:57:22.791Z,13.60
2019-06-01T02:59:54.029Z,13.60
2019-06-01T03:02:25.677Z,13.60
2019-06-01T03:04:57.124Z,13.50
2019-06-01T03:07:31.693Z,13.40
2019-06-01T03:10:05.425Z,13.30
2019-06-01T03:12:44.168Z,13.30
2019-06-01T03:15:17.595Z,13.20
2019-06-01T03:17:51.195Z,13.30
2019-06-01T03:20:22.409Z,13.30
2019-06-01T03:22:56.874Z,13.20
2019-06-01T03:25:30.181Z,13.30
2019-06-01T03:28:06.171Z,13.30
2019-06-01T03:30:45.399Z,13.30
2019-06-01T03:33:16.249Z,13.30
2019-06-01T03:35:48.168Z,13.20
2019-06-01T03:38:19.455Z,13.20
2019-06-01T03:40:50.582Z,13.30
2019-06-01T03:43:22.677Z,13.40
2019-06-01T03:45:54.244Z,13.40
2019-06-01T03:48:25.614Z,13.40
2019-06-01T03:50:56.751Z,13.40
2019-06-01T03:53:28.350Z,13.40
2019-06-01T03:56:01.530Z,13.40
2019-06-01T03:58:32.554Z,13.30
2019-06-01T04:01:05.187Z,13.30
2019-06-01T04:03:36.879Z,13.40
2019-06-01T04:06:09.465Z,13.40
2019-06-01T04:08:40.856Z,13.50
2019-06-01T04:11:12.348Z,13.50
2019-06-01T04:13:44.005Z,13.50
2019-06-01T04:16:15.114Z,13.50
2019-06-01T04:18:46.337Z,13.60
2019-06-01T04:21:17.584Z,13.60
2019-06-01T04:23:49.161Z,13.60
2019-06-01T04:26:20.352Z,13.70
2019-06-01T04:28:51.609Z,13.70
2019-06-01T04:31:22.724Z,13.70
2019-06-01T04:33:53.896Z,13.70
2019-06-01T04:36:25.120Z,13.80
2019-06-01T04:38:56.424Z,13.90
2019-06-01T04:41:27.676Z,13.90
2019-06-01T04:43:59.049Z,13.90
2019-06-01T04:46:30.775Z,14.00
2019-06-01T04:49:02.438Z,14.00
2019-06-01T04:51:33.740Z,14.10
2019-06-01T04:54:05.059Z,14.10
2019-06-01T04:56:36.500Z,14.20
2019-06-01T04:59:08.871Z,14.20
2019-06-01T05:01:40.509Z,14.30
2019-06-01T05:04:12.983Z,14.40
2019-06-01T05:06:44.434Z,14.50
2019-06-01T05:09:16.065Z,14.60
2019-06-01T05:11:47.686Z,14.70
2019-06-01T05:14:18.793Z,14.70
2019-06-01T05:16:50.263Z,14.80
2019-06-01T05:19:22.042Z,14.90
2019-06-01T05:21:53.874Z,15.00
2019-06-01T05:24:25.272Z,15.10
2019-06-01T05:26:56.517Z,15.10
2019-06-01T05:29:27.720Z,15.20
2019-06-01T05:31:59.273Z,15.20
2019-06-01T05:34:30.764Z,15.40
2019-06-01T05:37:01.919Z,15.40
2019-06-01T05:39:33.152Z,15.50
2019-06-01T05:42:04.956Z,15.60
2019-06-01T05:44:36.616Z,15.70
2019-06-01T05:47:07.892Z,15.80
2019-06-01T05:49:39.174Z,15.90
2019-06-01T05:52:10.493Z,16.00
2019-06-01T05:54:42.116Z,16.10
2019-06-01T05:57:13.354Z,16.20
2019-06-01T05:59:44.601Z,16.30
2019-06-01T06:02:15.843Z,16.40
2019-06-01T06:04:46.989Z,16.50
2019-06-01T06:07:19.140Z,16.60
2019-06-01T06:09:51.283Z,16.70
2019-06-01T06:12:22.569Z,16.80
2019-06-01T06:14:53.755Z,16.80
2019-06-01T06:17:24.957Z,16.90
2019-06-01T06:19:56.236Z,17.00
2019-06-01T06:22:27.447Z,17.10
2019-06-01T06:24:58.586Z,17.20
2019-06-01T06:27:29.742Z,17.30
2019-06-01T06:30:00.903Z,17.50
2019-06-01T06:32:32.424Z,17.60
2019-06-01T06:35:03.692Z,17.70
2019-06-01T06:37:34.919Z,17.90
2019-06-01T06:40:06.768Z,18.00
2019-06-01T06:42:38.048Z,18.10
2019-06-01T06:45:09.754Z,18.20
2019-06-01T06:47:40.991Z,18.30
2019-06-01T06:50:17.744Z,18.50
2019-06-01T06:52:49.536Z,18.60
2019-06-01T06:55:21.914Z,18.80
2019-06-01T06:57:53.407Z,19.10
2019-06-01T07:00:24.962Z,19.30
2019-06-01T07:02:56.260Z,19.50
2019-06-01T07:05:30.729Z,19.60
2019-06-01T07:08:00.536Z,19.80
2019-06-01T07:10:31.835Z,19.90
2019-06-01T07:13:03.096Z,20.10
2019-06-01T07:15:34.383Z,20.20
2019-06-01T07:18:05.686Z,20.20
2019-06-01T07:20:36.881Z,20.50
2019-06-01T07:23:08.203Z,20.60
2019-06-01T07:25:39.760Z,20.80
2019-06-01T07:28:10.887Z,20.80
2019-06-01T07:30:50.400Z,21.00
2019-06-01T07:33:15.040Z,21.10
2019-06-01T07:35:46.234Z,21.20
2019-06-01T07:38:17.289Z,21.30
2019-06-01T07:40:48.711Z,21.40
2019-06-01T07:43:20.556Z,21.50
2019-06-01T07:45:52.211Z,21.80
2019-06-01T07:48:23.459Z,22.00
2019-06-01T07:50:54.727Z,22.30
2019-06-01T07:53:27.337Z,22.10
2019-06-01T07:55:59.795Z,22.30
2019-06-01T07:58:31.355Z,22.40
2019-06-01T08:01:02.462Z,22.60
2019-06-01T08:03:35.082Z,22.80
2019-06-01T08:06:06.486Z,23.00
2019-06-01T08:08:38.079Z,23.20
2019-06-01T08:11:10.093Z,23.30
2019-06-01T08:13:41.304Z,23.50
2019-06-01T08:16:12.756Z,23.70
2019-06-01T08:18:44.726Z,23.70
2019-06-01T08:21:15.968Z,23.80
2019-06-01T08:23:47.391Z,24.00
2019-06-01T08:26:20.147Z,24.30
2019-06-01T08:28:51.387Z,24.10
2019-06-01T08:31:22.671Z,24.00
2019-06-01T08:33:54.125Z,23.90
2019-06-01T08:36:25.512Z,24.00
2019-06-01T08:38:56.727Z,23.90
2019-06-01T08:41:29.863Z,24.10
2019-06-01T08:44:01.358Z,24.40
2019-06-01T08:46:33.706Z,24.20
2019-06-01T08:49:05.297Z,24.30
2019-06-01T08:51:36.837Z,24.20
2019-06-01T08:54:08.116Z,24.20
2019-06-01T08:56:39.629Z,24.60
2019-06-01T08:59:10.984Z,24.80
2019-06-01T09:01:42.170Z,25.20
2019-06-01T09:04:13.393Z,25.40
2019-06-01T09:06:44.652Z,25.30
2019-06-01T09:09:16.319Z,25.10
2019-06-01T09:11:47.577Z,25.00
2019-06-01T09:14:19.118Z,25.00
2019-06-01T09:16:50.510Z,25.10
2019-06-01T09:19:21.724Z,25.40
2019-06-01T09:21:53.014Z,25.70
2019-06-01T09:24:25.649Z,25.80
2019-06-01T09:26:57.379Z,25.70
2019-06-01T09:29:29.988Z,25.80
2019-06-01T09:32:02.564Z,26.00
2019-06-01T09:34:34.477Z,25.80
2019-06-01T09:37:05.890Z,25.80
2019-06-01T09:39:37.405Z,25.70
2019-06-01T09:42:08.746Z,25.50
2019-06-01T09:44:39.899Z,25.30
2019-06-01T09:47:11.621Z,24.90
2019-06-01T09:49:42.877Z,24.80
2019-06-01T09:52:14.161Z,24.60
2019-06-01T09:54:45.889Z,24.70
2019-06-01T09:57:17.136Z,24.50
2019-06-01T09:59:48.339Z,24.50
2019-06-01T10:02:19.884Z,24.50
2019-06-01T10:04:50.973Z,24.50
2019-06-01T10:07:22.091Z,24.60
2019-06-01T10:09:53.216Z,24.50
2019-06-01T10:12:24.638Z,24.10
2019-06-01T10:14:55.783Z,24.30
2019-06-01T10:17:27.068Z,24.60
2019-06-01T10:19:58.418Z,25.00
2019-06-01T10:22:30.883Z,25.50
2019-06-01T10:25:03.662Z,25.80
2019-06-01T10:27:35.013Z,25.90
2019-06-01T10:30:07.669Z,26.20
2019-06-01T10:32:39.916Z,26.40
2019-06-01T10:35:13.617Z,26.50
2019-06-01T10:37:44.915Z,26.70
2019-06-01T10:40:17.093Z,27.00
2019-06-01T10:42:48.362Z,27.10
2019-06-01T10:45:20.794Z,27.10
2019-06-01T10:47:52.009Z,27.00
2019-06-01T10:50:23.119Z,27.00
2019-06-01T10:52:54.736Z,27.00
2019-06-01T10:55:26.374Z,26.90
2019-06-01T10:57:57.758Z,26.70
2019-06-01T11:00:38.700Z,26.40
2019-06-01T11:03:02.115Z,26.30
2019-06-01T11:05:35.001Z,26.50
2019-06-01T11:08:06.810Z,26.60
2019-06-01T11:10:38.946Z,26.80
2019-06-01T11:13:10.650Z,27.00
2019-06-01T11:15:41.870Z,27.00
2019-06-01T11:18:13.002Z,27.20
2019-06-01T11:20:44.218Z,27.40
2019-06-01T11:23:15.507Z,27.30
2019-06-01T11:25:46.891Z,27.00
2019-06-01T11:28:18.017Z,27.10
2019-06-01T11:30:50.374Z,27.30
2019-06-01T11:33:21.667Z,27.50
2019-06-01T11:35:53.032Z,27.70
2019-06-01T11:38:24.827Z,27.80
2019-06-01T11:40:56.057Z,27.80
2019-06-01T11:43:27.317Z,27.70
2019-06-01T11:45:58.547Z,27.80
2019-06-01T11:48:29.675Z,27.80
2019-06-01T11:51:01.264Z,27.90
2019-06-01T11:53:32.576Z,27.80
2019-06-01T11:56:03.983Z,28.00
2019-06-01T11:58:35.206Z,27.90
2019-06-01T12:01:06.482Z,27.90
2019-06-01T12:03:37.758Z,28.20
2019-06-01T12:06:09.248Z,28.10
2019-06-01T12:08:40.376Z,27.90
2019-06-01T12:11:11.886Z,28.00
2019-06-01T12:13:44.321Z,27.60
2019-06-01T12:16:15.837Z,27.60
2019-06-01T12:18:47.081Z,27.40
2019-06-01T12:21:18.665Z,27.30
2019-06-01T12:23:49.848Z,27.60
2019-06-01T12:26:21.078Z,27.80
2019-06-01T12:28:52.277Z,28.00
2019-06-01T12:31:23.659Z,28.20
2019-06-01T12:33:54.915Z,28.50
2019-06-01T12:36:26.456Z,28.80
2019-06-01T12:38:57.676Z,28.80
2019-06-01T12:41:29.375Z,28.60
2019-06-01T12:44:13.492Z,28.80
2019-06-01T12:46:44.959Z,28.80
2019-06-01T12:49:16.978Z,29.00
2019-06-01T12:51:48.918Z,29.10
2019-06-01T12:54:20.425Z,28.00
2019-06-01T12:56:53.024Z,27.80
2019-06-01T12:59:24.383Z,27.80
2019-06-01T13:01:55.800Z,27.90
2019-06-01T13:04:27.090Z,28.30
2019-06-01T13:06:58.699Z,28.60
2019-06-01T13:09:30.413Z,28.10
2019-06-01T13:12:02.111Z,27.80
2019-06-01T13:14:33.723Z,28.00
2019-06-01T13:17:07.719Z,28.00
2019-06-01T13:19:37.815Z,27.90
2019-06-01T13:22:09.123Z,28.30
2019-06-01T13:24:41.562Z,28.30
2019-06-01T13:27:12.921Z,28.00
2019-06-01T13:29:44.203Z,28.10
2019-06-01T13:32:15.430Z,28.30
2019-06-01T13:34:47.182Z,28.40
2019-06-01T13:37:18.512Z,28.10
2019-06-01T13:39:55.805Z,28.10
2019-06-01T13:42:23.076Z,28.20
2019-06-01T13:44:54.609Z,28.00
2019-06-01T13:47:25.915Z,27.60
2019-06-01T13:49:57.121Z,27.60
2019-06-01T13:52:28.333Z,27.80
2019-06-01T13:54:59.553Z,28.00
2019-06-01T13:57:30.777Z,28.20
2019-06-01T14:00:01.893Z,28.10
2019-06-01T14:02:33.878Z,28.20
2019-06-01T14:05:05.456Z,28.10
2019-06-01T14:07:37.204Z,28.00
2019-06-01T14:10:09.112Z,27.90
2019-06-01T14:12:41.002Z,27.60
2019-06-01T14:15:12.552Z,27.70
2019-06-01T14:17:44.125Z,27.50
2019-06-01T14:20:15.799Z,27.80
2019-06-01T14:22:47.663Z,27.50
2019-06-01T14:25:19.173Z,27.60
2019-06-01T14:27:51.955Z,27.50
2019-06-01T14:30:24.240Z,27.60
2019-06-01T14:32:56.892Z,27.70
2019-06-01T14:35:28.735Z,27.70
2019-06-01T14:38:00.036Z,27.60
2019-06-01T14:40:31.677Z,27.60
2019-06-01T14:43:02.978Z,27.90
2019-06-01T14:45:34.221Z,27.60
2019-06-01T14:48:05.608Z,27.60
2019-06-01T14:50:36.866Z,27.30
2019-06-01T14:53:08.162Z,27.30
2019-06-01T14:55:40.669Z,27.20
2019-06-01T14:58:12.101Z,27.20
2019-06-01T15:00:43.305Z,27.20
2019-06-01T15:03:14.378Z,27.10
2019-06-01T15:05:45.639Z,27.00
2019-06-01T15:08:16.939Z,27.00
2019-06-01T15:10:48.691Z,27.10
2019-06-01T15:13:20.080Z,27.30
2019-06-01T15:15:51.405Z,27.50
2019-06-01T15:18:23.000Z,27.50
2019-06-01T15:20:55.853Z,27.40
2019-06-01T15:23:27.174Z,27.40
2019-06-01T15:25:58.889Z,27.20
2019-06-01T15:28:30.217Z,27.00
2019-06-01T15:31:01.330Z,26.80
2019-06-01T15:33:32.669Z,26.90
2019-06-01T15:36:03.958Z,26.70
2019-06-01T15:38:35.515Z,26.50
2019-06-01T15:41:06.780Z,26.40
2019-06-01T15:43:38.125Z,26.60
2019-06-01T15:46:09.279Z,26.70
2019-06-01T15:48:40.493Z,26.80
2019-06-01T15:51:11.693Z,27.00
2019-06-01T15:53:43.319Z,27.00
2019-06-01T15:56:14.483Z,27.00
2019-06-01T15:58:53.108Z,27.10
2019-06-01T16:01:18.714Z,27.00
2019-06-01T16:03:49.786Z,27.10
2019-06-01T16:06:21.482Z,27.10
2019-06-01T16:08:53.197Z,27.20
2019-06-01T16:11:24.596Z,27.10
2019-06-01T16:13:55.901Z,27.10
2019-06-01T16:16:27.187Z,27.00
2019-06-01T16:19:04.030Z,27.10
2019-06-01T16:21:32.086Z,27.10
2019-06-01T16:24:04.380Z,27.00
2019-06-01T16:26:35.945Z,26.80
2019-06-01T16:29:07.639Z,26.70
2019-06-01T16:31:39.310Z,26.70
2019-06-01T16:34:11.075Z,26.60
2019-06-01T16:36:42.666Z,26.40
2019-06-01T16:39:13.940Z,26.40
2019-06-01T16:41:45.160Z,26.40
2019-06-01T16:44:19.759Z,26.40
2019-06-01T16:46:49.642Z,26.50
2019-06-01T16:49:20.856Z,26.60
2019-06-01T16:51:56.419Z,26.60
2019-06-01T16:54:28.274Z,26.60
2019-06-01T16:57:24.961Z,26.60
2019-06-01T17:00:04.900Z,26.50
2019-06-01T17:02:50.483Z,26.40
2019-06-01T17:05:24.727Z,26.30
2019-06-01T17:07:56.676Z,26.20
2019-06-01T17:10:28.236Z,26.20
2019-06-01T17:13:00.274Z,26.20
2019-06-01T17:15:32.892Z,26.30
2019-06-01T17:18:08.229Z,26.40
2019-06-01T17:20:52.900Z,26.40
2019-06-01T17:23:28.010Z,26.50
2019-06-01T17:25:58.378Z,26.40
2019-06-01T17:28:29.662Z,26.20
2019-06-01T17:31:02.310Z,26.20
2019-06-01T17:33:33.592Z,26.20
2019-06-01T17:36:05.301Z,26.20
2019-06-01T17:38:36.807Z,26.20
2019-06-01T17:41:08.436Z,26.20
2019-06-01T17:43:39.988Z,26.30
2019-06-01T17:46:12.030Z,26.30
2019-06-01T17:48:43.828Z,26.20
2019-06-01T17:51:15.062Z,26.20
2019-06-01T17:53:46.969Z,26.20
2019-06-01T17:56:18.481Z,26.10
2019-06-01T17:58:49.998Z,26.10
2019-06-01T18:01:21.531Z,26.10
2019-06-01T18:03:52.842Z,26.10
2019-06-01T18:06:24.851Z,26.10
2019-06-01T18:08:57.330Z,26.00
2019-06-01T18:11:28.983Z,26.00
2019-06-01T18:14:00.256Z,25.90
2019-06-01T18:16:31.756Z,25.90
2019-06-01T18:19:04.110Z,25.80
2019-06-01T18:21:35.400Z,25.80
2019-06-01T18:24:08.423Z,25.80
2019-06-01T18:26:40.043Z,25.70
2019-06-01T18:29:11.370Z,25.70
2019-06-01T18:31:42.587Z,25.60
2019-06-01T18:34:14.876Z,25.60
2019-06-01T18:36:46.213Z,25.60
2019-06-01T18:39:17.901Z,25.50
2019-06-01T18:41:49.569Z,25.50
2019-06-01T18:44:20.865Z,25.40
2019-06-01T18:46:52.573Z,25.30
2019-06-01T18:49:25.169Z,25.30
2019-06-01T18:51:58.531Z,25.20
2019-06-01T18:54:29.812Z,25.20
2019-06-01T18:57:11.987Z,25.10
2019-06-01T18:59:34.126Z,25.00
2019-06-01T19:02:06.366Z,24.90
2019-06-01T19:04:37.893Z,24.80
2019-06-01T19:07:09.480Z,24.80
2019-06-01T19:09:41.126Z,24.70
2019-06-01T19:12:13.430Z,24.60
2019-06-01T19:14:47.937Z,24.50
2019-06-01T19:17:19.606Z,24.40
2019-06-01T19:19:50.946Z,24.30
2019-06-01T19:22:22.450Z,24.30
2019-06-01T19:24:53.896Z,24.20
2019-06-01T19:27:25.477Z,24.10
2019-06-01T19:29:57.089Z,24.00
2019-06-01T19:32:29.199Z,23.90
2019-06-01T19:35:01.506Z,23.70
2019-06-01T19:37:37.933Z,23.50
2019-06-01T19:40:09.314Z,23.40
2019-06-01T19:42:40.778Z,23.40
2019-06-01T19:45:25.342Z,23.30
2019-06-01T19:47:45.194Z,23.20
2019-06-01T19:50:16.529Z,23.20
2019-06-01T19:52:47.729Z,23.20
2019-06-01T19:55:19.830Z,23.20
2019-06-01T19:57:52.187Z,23.10
2019-06-01T20:00:23.478Z,23.00
2019-06-01T20:02:54.692Z,23.00
2019-06-01T20:05:26.050Z,23.00
2019-06-01T20:07:57.584Z,23.00
2019-06-01T20:10:28.733Z,22.80
2019-06-01T20:13:00.933Z,22.80
2019-06-01T20:15:32.233Z,22.80
2019-06-01T20:18:03.502Z,22.60
2019-06-01T20:20:35.158Z,22.20
2019-06-01T20:23:06.906Z,21.90
2019-06-01T20:25:38.567Z,21.70
2019-06-01T20:28:11.378Z,21.50
2019-06-01T20:30:42.814Z,21.40
2019-06-01T20:33:14.163Z,21.40
2019-06-01T20:35:45.443Z,21.40
2019-06-01T20:38:18.357Z,21.50
2019-06-01T20:40:49.953Z,21.50
2019-06-01T20:43:22.811Z,21.50
2019-06-01T20:45:56.773Z,21.40
2019-06-01T20:48:27.244Z,21.40
2019-06-01T20:50:58.379Z,21.20
2019-06-01T20:53:29.921Z,21.00
2019-06-01T20:56:01.245Z,20.90
2019-06-01T20:58:32.517Z,20.80
2019-06-01T21:01:04.428Z,20.80
2019-06-01T21:03:35.960Z,20.80
2019-06-01T21:06:07.611Z,20.70
2019-06-01T21:08:40.478Z,20.70
2019-06-01T21:11:12.271Z,20.70
2019-06-01T21:13:43.323Z,20.70
2019-06-01T21:16:14.659Z,20.70
2019-06-01T21:18:46.184Z,20.70
2019-06-01T21:21:18.293Z,20.60
2019-06-01T21:23:49.545Z,20.50
2019-06-01T21:26:21.105Z,20.40
2019-06-01T21:28:52.399Z,20.30
2019-06-01T21:31:23.496Z,20.10
2019-06-01T21:33:55.303Z,19.90
2019-06-01T21:36:26.614Z,19.80
2019-06-01T21:38:58.311Z,19.80
2019-06-01T21:41:29.537Z,19.70
2019-06-01T21:44:00.833Z,19.80
2019-06-01T21:46:32.459Z,19.70
2019-06-01T21:49:03.722Z,19.60
2019-06-01T21:51:35.232Z,19.50
2019-06-01T21:54:06.525Z,19.40
2019-06-01T21:56:38.138Z,19.30
2019-06-01T21:59:10.704Z,19.10
2019-06-01T22:01:42.031Z,19.10
2019-06-01T22:04:13.177Z,19.00
2019-06-01T22:06:46.471Z,19.00
2019-06-01T22:09:19.103Z,19.00
2019-06-01T22:11:50.454Z,18.80
2019-06-01T22:14:21.756Z,18.90
2019-06-01T22:16:52.946Z,18.80
2019-06-01T22:19:24.144Z,18.70
2019-06-01T22:21:56.115Z,18.80
2019-06-01T22:24:28.329Z,18.70
2019-06-01T22:26:59.569Z,18.70
2019-06-01T22:29:30.814Z,18.60
2019-06-01T22:32:01.959Z,18.70
2019-06-01T22:34:33.209Z,18.60
2019-06-01T22:37:04.797Z,18.50
2019-06-01T22:39:36.998Z,18.60
2019-06-01T22:42:08.189Z,18.50
2019-06-01T22:44:39.461Z,18.40
2019-06-01T22:47:11.131Z,18.30
2019-06-01T22:49:42.920Z,18.20
2019-06-01T22:52:14.443Z,18.20
2019-06-01T22:54:45.740Z,18.20
2019-06-01T22:57:17.047Z,18.20
2019-06-01T22:59:48.234Z,18.20
2019-06-01T23:02:19.359Z,18.20
2019-06-01T23:04:50.901Z,18.30
2019-06-01T23:07:23.017Z,18.30
2019-06-01T23:09:54.444Z,18.20
2019-06-01T23:12:25.706Z,18.10
2019-06-01T23:14:56.890Z,18.20
2019-06-01T23:17:28.207Z,18.20
2019-06-01T23:19:59.412Z,18.10
2019-06-01T23:22:30.636Z,18.10
2019-06-01T23:25:01.971Z,18.10
2019-06-01T23:27:33.603Z,18.10
2019-06-01T23:30:05.443Z,18.00
2019-06-01T23:32:36.659Z,18.00
2019-06-01T23:35:08.214Z,17.90
2019-06-01T23:37:39.581Z,17.90
2019-06-01T23:40:12.051Z,17.90
2019-06-01T23:42:43.415Z,17.90
2019-06-01T23:45:15.118Z,17.80
2019-06-01T23:47:46.395Z,17.70
2019-06-01T23:50:17.670Z,17.80
2019-06-01T23:52:48.920Z,17.80
2019-06-01T23:55:20.241Z,17.50
2019-06-01T23:57:51.768Z,17.40
